Dades meteomassalio
Diari Summary for Febrer 21, 2018 Units:  Metric    English   Both
« Previous Day
Next Day »
Diari Semanal Mensual Anual Personalitzat
  Maxima: Minima: Mijana:
Temperatura: -17.8 °C -15.9 °C -13.2 °C
Rosada: -17.8 °C -20.2 °C -17.2 °C
Humitat: Humidity % 44 % 61 %
Velocitat del vent: 0 km/h 29.8 km/h 48.6 km/h
Racha vent: 0 km/h - -
Vent:- - NW
Pressio: 0 hPa 34178.3 hPa -
Pluja: 0 mm    
Historical Graphs
 
 
Tabular Data for Febrer 21, 2018
Time Temperature Dew Point Pressure Wind Wind Speed Wind Gust Humidity Rainfall Rate (Hourly) solar Conditions
-17.8 °C -17.8 °C 0 hPa Calm     Humidity % 0 mm SolarRadiationWatts/m^2 W/m2 Conditions
00:03 -13.4 °C -16 °C 34371.3 hPa NW 50.7 km/h 50.7 km/h 73 % 0 mm 0.0 W/m2 CLR
00:08 -13.4 °C -16 °C 34371.3 hPa WNW 41.7 km/h 41.7 km/h 73 % 0 mm 0.0 W/m2 CLR
00:13 -13.4 °C -16 °C 34384.8 hPa WNW 35.7 km/h 35.7 km/h 73 % 0 mm 0.0 W/m2 CLR
00:18 -13.4 °C -16 °C 34384.8 hPa NW 33.6 km/h 33.6 km/h 73 % 0 mm 0.0 W/m2 CLR
00:23 -13.4 °C -15.9 °C 34371.3 hPa West 29.8 km/h 29.8 km/h 74 % 0 mm 0.0 W/m2 CLR
00:28 -13.4 °C -15.9 °C 34371.3 hPa NW 50.7 km/h 50.7 km/h 74 % 0 mm 0.0 W/m2 CLR
00:33 -13.4 °C -15.9 °C 34371.3 hPa WNW 41.7 km/h 41.7 km/h 74 % 0 mm 0.0 W/m2 CLR
00:38 -13.4 °C -15.9 °C 34371.3 hPa WNW 29.8 km/h 29.8 km/h 74 % 0 mm 0.0 W/m2 CLR
00:43 -13.4 °C -15.9 °C 34371.3 hPa WNW 47.6 km/h 47.6 km/h 74 % 0 mm 0.0 W/m2 CLR
00:48 -13.4 °C -15.9 °C 34371.3 hPa NW 46.7 km/h 46.7 km/h 74 % 0 mm 0.0 W/m2 CLR
00:53 -13.8 °C -16.2 °C 34371.3 hPa NW 29.8 km/h 29.8 km/h 74 % 0 mm 0.0 W/m2 CLR
00:58 -13.4 °C -15.9 °C 34371.3 hPa NW 41.7 km/h 41.7 km/h 74 % 0 mm 0.0 W/m2 CLR
01:03 -13.4 °C -15.9 °C 34361.1 hPa WNW 35.7 km/h 35.7 km/h 74 % 0 mm 0.0 W/m2 CLR
01:08 -13.4 °C -15.9 °C 34361.1 hPa NW 47.6 km/h 47.6 km/h 74 % 0 mm 0.0 W/m2 CLR
01:13 -13.4 °C -15.9 °C 34361.1 hPa WNW 38.8 km/h 38.8 km/h 74 % 0 mm 0.0 W/m2 CLR
01:18 -13.8 °C -16.2 °C 34347.6 hPa WNW 44.7 km/h 44.7 km/h 74 % 0 mm 0.0 W/m2 CLR
01:23 -13.4 °C -15.9 °C 34361.1 hPa WNW 29.8 km/h 29.8 km/h 74 % 0 mm 0.0 W/m2 CLR
01:28 -13.4 °C -15.9 °C 34361.1 hPa WNW 41.7 km/h 41.7 km/h 74 % 0 mm 0.0 W/m2 CLR
01:33 -13.4 °C -15.9 °C 34347.6 hPa WNW 35.7 km/h 35.7 km/h 74 % 0 mm 0.0 W/m2 CLR
01:38 -13.4 °C -15.9 °C 34337.4 hPa NNW 49.2 km/h 49.2 km/h 74 % 0 mm 0.0 W/m2 CLR
01:43 -13.4 °C -15.9 °C 34337.4 hPa WNW 33.6 km/h 33.6 km/h 74 % 0 mm 0.0 W/m2 CLR
01:49 -13.8 °C -16.2 °C 34337.4 hPa NW 38.8 km/h 38.8 km/h 74 % 0 mm 0.0 W/m2 CLR
01:54 -13.8 °C -16.2 °C 34337.4 hPa NNW 38.8 km/h 38.8 km/h 74 % 0 mm 0.0 W/m2 CLR
01:59 -13.4 °C -15.9 °C 34337.4 hPa WNW 29.8 km/h 29.8 km/h 74 % 0 mm 0.0 W/m2 CLR
02:04 -13.4 °C -15.9 °C 34337.4 hPa NW 41.7 km/h 41.7 km/h 74 % 0 mm 0.0 W/m2 CLR
02:09 -13.4 °C -15.9 °C 34337.4 hPa WNW 29.8 km/h 29.8 km/h 74 % 0 mm 0.0 W/m2 CLR
02:14 -13.4 °C -15.9 °C 34337.4 hPa NW 29.8 km/h 29.8 km/h 74 % 0 mm 0.0 W/m2 CLR
02:19 -13.2 °C -15.6 °C 34337.4 hPa NW 29.8 km/h 29.8 km/h 74 % 0 mm 0.0 W/m2 CLR
02:24 -13.2 °C -15.6 °C 34327.3 hPa WNW 59.5 km/h 59.5 km/h 74 % 0 mm 0.0 W/m2 CLR
02:29 -13.2 °C -15.6 °C 34327.3 hPa WNW 41.7 km/h 41.7 km/h 74 % 0 mm 0.0 W/m2 CLR
02:34 -13.2 °C -15.6 °C 34327.3 hPa WNW 38.8 km/h 38.8 km/h 74 % 0 mm 0.0 W/m2 CLR
02:39 -13.2 °C -15.6 °C 34327.3 hPa NW 38.8 km/h 38.8 km/h 74 % 0 mm 0.0 W/m2 CLR
02:44 -13.2 °C -15.4 °C 34327.3 hPa NNW 47.6 km/h 47.6 km/h 75 % 0 mm 0.0 W/m2 CLR
02:49 -13.2 °C -15.6 °C 34327.3 hPa NW 32.8 km/h 32.8 km/h 74 % 0 mm 0.0 W/m2 CLR
02:54 -13.2 °C -15.6 °C 34327.3 hPa NW 29.8 km/h 29.8 km/h 74 % 0 mm 0.0 W/m2 CLR
02:59 -13.2 °C -15.6 °C 34313.7 hPa WNW 38.8 km/h 38.8 km/h 74 % 0 mm 0.0 W/m2 CLR
03:04 -13.2 °C -15.6 °C 34313.7 hPa NW 38.8 km/h 38.8 km/h 74 % 0 mm 0.0 W/m2 CLR
03:09 -13.2 °C -15.4 °C 34303.6 hPa WNW 32.8 km/h 32.8 km/h 75 % 0 mm 0.0 W/m2 CLR
03:14 -13.2 °C -15.4 °C 34303.6 hPa NW 32.8 km/h 32.8 km/h 75 % 0 mm 0.0 W/m2 CLR
03:19 -13.2 °C -15.4 °C 34303.6 hPa NW 29.8 km/h 29.8 km/h 75 % 0 mm 0.0 W/m2 CLR
03:24 -13.2 °C -15.4 °C 34303.6 hPa WNW 31.1 km/h 31.1 km/h 75 % 0 mm 0.0 W/m2 CLR
03:29 -13.2 °C -15.4 °C 34293.4 hPa NW 29.8 km/h 29.8 km/h 75 % 0 mm 0.0 W/m2 CLR
03:34 -13.2 °C -15.4 °C 34293.4 hPa WNW 38.8 km/h 38.8 km/h 75 % 0 mm 0.0 W/m2 CLR
03:39 -13.2 °C -15.4 °C 34293.4 hPa WNW 36.2 km/h 36.2 km/h 75 % 0 mm 0.0 W/m2 CLR
03:44 -13.2 °C -15.4 °C 34293.4 hPa NW 38.8 km/h 38.8 km/h 75 % 0 mm 0.0 W/m2 CLR
03:49 -13.2 °C -15.4 °C 34279.9 hPa NW 41.4 km/h 41.4 km/h 75 % 0 mm 0.0 W/m2 CLR
03:54 -13.2 °C -15.4 °C 34279.9 hPa NNW 53.6 km/h 53.6 km/h 75 % 0 mm 0.0 W/m2 CLR
03:59 -13.2 °C -15.4 °C 34279.9 hPa NNW 44.7 km/h 44.7 km/h 75 % 0 mm 0.0 W/m2 CLR
04:04 -13.2 °C -15.4 °C 34279.9 hPa NW 53.6 km/h 53.6 km/h 75 % 0 mm 0.0 W/m2 CLR
04:09 -13.2 °C -15.4 °C 34279.9 hPa NNW 44.7 km/h 44.7 km/h 75 % 0 mm 0.0 W/m2 CLR
04:14 -13.2 °C -15.4 °C 34279.9 hPa NNW 47.6 km/h 47.6 km/h 75 % 0 mm 0.0 W/m2 CLR
04:19 -13.2 °C -15.4 °C 34279.9 hPa North 50.7 km/h 50.7 km/h 75 % 0 mm 0.0 W/m2 CLR
04:24 -13.2 °C -15.4 °C 34279.9 hPa NNW 29.8 km/h 29.8 km/h 75 % 0 mm 0.0 W/m2 CLR
04:29 -13.2 °C -15.4 °C 34279.9 hPa NNW 56.6 km/h 56.6 km/h 75 % 0 mm 0.0 W/m2 CLR
04:34 -13.2 °C -15.4 °C 34269.7 hPa North 50.7 km/h 50.7 km/h 75 % 0 mm 0.0 W/m2 CLR
04:39 -13.2 °C -15.4 °C 34269.7 hPa North 46.7 km/h 46.7 km/h 75 % 0 mm 0.0 W/m2 CLR
04:44 -13.2 °C -15.4 °C 34269.7 hPa NNW 50.7 km/h 50.7 km/h 75 % 0 mm 0.0 W/m2 CLR
04:49 -13.2 °C -15.4 °C 34256.2 hPa NNW 50.7 km/h 50.7 km/h 75 % 0 mm 0.0 W/m2 CLR
04:54 -13.2 °C -15.6 °C 34269.7 hPa NNW 50.7 km/h 50.7 km/h 74 % 0 mm 0.0 W/m2 CLR
04:59 -13.2 °C -15.6 °C 34269.7 hPa NW 44.7 km/h 44.7 km/h 74 % 0 mm 0.0 W/m2 CLR
05:04 -13.2 °C -15.4 °C 34269.7 hPa NW 47.6 km/h 47.6 km/h 75 % 0 mm 0.0 W/m2 CLR
05:09 -13.2 °C -15.4 °C 34269.7 hPa NW 47.6 km/h 47.6 km/h 75 % 0 mm 0.0 W/m2 CLR
05:14 -13.2 °C -15.4 °C 34269.7 hPa North 35.7 km/h 35.7 km/h 75 % 0 mm 0.0 W/m2 CLR
05:19 -13.2 °C -15.4 °C 34269.7 hPa NW 29.8 km/h 29.8 km/h 75 % 0 mm 0.0 W/m2 CLR
05:24 -13.2 °C -15.4 °C 34269.7 hPa NNW 57 km/h 57 km/h 75 % 0 mm 0.0 W/m2 CLR
05:29 -13.2 °C -15.4 °C 34256.2 hPa North 50.7 km/h 50.7 km/h 75 % 0 mm 0.0 W/m2 CLR
05:34 -13.2 °C -15.4 °C 34256.2 hPa NNW 69.8 km/h 69.8 km/h 75 % 0 mm 0.0 W/m2 CLR
05:39 -13.4 °C -15.8 °C 34246 hPa NNW 80.5 km/h 80.5 km/h 75 % 0 mm 0.0 W/m2 CLR
05:44 -13.4 °C -15.7 °C 34246 hPa NNW 65.5 km/h 65.5 km/h 76 % 0 mm 0.0 W/m2 CLR
05:49 -13.4 °C -15.7 °C 34256.2 hPa NNW 77.4 km/h 77.4 km/h 76 % 0 mm 0.0 W/m2 CLR
05:54 -13.2 °C -15.4 °C 34256.2 hPa NW 47.6 km/h 47.6 km/h 76 % 0 mm 0.0 W/m2 CLR
05:59 -13.2 °C -15.4 °C 34246 hPa NNW 50.7 km/h 50.7 km/h 75 % 0 mm 0.0 W/m2 CLR
06:04 -13.2 °C -15.4 °C 34246 hPa WNW 35.7 km/h 35.7 km/h 75 % 0 mm 0.0 W/m2 CLR
06:09 -13.2 °C -15.4 °C 34246 hPa NNW 53.6 km/h 53.6 km/h 75 % 0 mm 0.0 W/m2 CLR
06:14 -13.2 °C -15.4 °C 34246 hPa North 53.6 km/h 53.6 km/h 75 % 0 mm 0.0 W/m2 CLR
06:19 -13.2 °C -15.4 °C 34246 hPa NNW 62.6 km/h 62.6 km/h 76 % 0 mm 0.0 W/m2 CLR
06:24 -13.2 °C -15.4 °C 34246 hPa NNW 44.1 km/h 44.1 km/h 76 % 0 mm 0.0 W/m2 CLR
06:29 -13.2 °C -15.4 °C 34235.8 hPa North 46.7 km/h 46.7 km/h 76 % 0 mm 0.0 W/m2 CLR
06:34 -13.4 °C -15.7 °C 34235.8 hPa North 53.6 km/h 53.6 km/h 76 % 0 mm 0.0 W/m2 CLR
06:39 -13.4 °C -15.7 °C 34235.8 hPa NNW 50.7 km/h 50.7 km/h 76 % 0 mm 0.0 W/m2 CLR
06:44 -13.4 °C -15.7 °C 34235.8 hPa NW 50.7 km/h 50.7 km/h 76 % 0 mm 0.0 W/m2 CLR
06:49 -13.4 °C -15.6 °C 34235.8 hPa NNW 62.6 km/h 62.6 km/h 77 % 0 mm 0.0 W/m2 CLR
06:54 -13.8 °C -15.9 °C 34235.8 hPa NNW 41.7 km/h 41.7 km/h 77 % 0 mm 0.0 W/m2 CLR
06:59 -13.8 °C -15.9 °C 34235.8 hPa NNW 47.6 km/h 47.6 km/h 77 % 0 mm 0.0 W/m2 CLR
07:04 -13.8 °C -15.7 °C 34235.8 hPa NNW 41.7 km/h 41.7 km/h 78 % 0 mm 0.0 W/m2 CLR
07:09 -13.8 °C -15.7 °C 34235.8 hPa North 44.7 km/h 44.7 km/h 78 % 0 mm 0.0 W/m2 CLR
07:14 -14.1 °C -16.2 °C 34235.8 hPa NNW 64.7 km/h 64.7 km/h 77 % 0 mm 0.0 W/m2 CLR
07:19 -13.8 °C -15.9 °C 34235.8 hPa NNW 53.6 km/h 53.6 km/h 77 % 0 mm 0.0 W/m2 CLR
07:24 -13.8 °C -16.1 °C 34235.8 hPa North 62.6 km/h 62.6 km/h 75 % 0 mm 0.0 W/m2 CLR
07:29 -14.1 °C -16.5 °C 34246 hPa North 77.4 km/h 77.4 km/h 74 % 0 mm 0.0 W/m2 CLR
07:35 -14.1 °C -16.5 °C 34235.8 hPa North 68.6 km/h 68.6 km/h 74 % 0 mm 0.0 W/m2 CLR
07:40 -14.1 °C -16.3 °C 34246 hPa North 62.1 km/h 62.1 km/h 75 % 0 mm 0.0 W/m2 OVC
07:45 -14.1 °C -16.3 °C 34246 hPa North 74.5 km/h 74.5 km/h 75 % 0 mm 0.0 W/m2 OVC
07:50 -14.1 °C -16.3 °C 34235.8 hPa North 53.6 km/h 53.6 km/h 76 % 0 mm 5.0 W/m2 OVC
07:55 -14.1 °C -16.3 °C 34235.8 hPa North 77.4 km/h 77.4 km/h 75 % 0 mm 7.0 W/m2 OVC
08:00 -14.1 °C -16.3 °C 34235.8 hPa NNW 71.5 km/h 71.5 km/h 75 % 0 mm 9.0 W/m2 BKN
08:05 -14.4 °C -16.7 °C 34246 hPa NNW 77.4 km/h 77.4 km/h 75 % 0 mm 12.0 W/m2 BKN
08:10 -14.4 °C -16.7 °C 34246 hPa NNW 68.6 km/h 68.6 km/h 75 % 0 mm 16.0 W/m2 BKN
08:15 -14.4 °C -16.7 °C 34246 hPa NNW 71.5 km/h 71.5 km/h 75 % 0 mm 19.0 W/m2 BKN
08:20 -14.4 °C -16.7 °C 34256.2 hPa NNW 50.7 km/h 50.7 km/h 75 % 0 mm 30.0 W/m2 BKN
08:25 -14.4 °C -16.7 °C 34246 hPa North 65.5 km/h 65.5 km/h 75 % 0 mm 30.0 W/m2 BKN
08:30 -14.4 °C -16.6 °C 34246 hPa NNW 47.6 km/h 47.6 km/h 76 % 0 mm 26.0 W/m2 BKN
08:35 -14.4 °C -16.6 °C 34246 hPa NW 41.7 km/h 41.7 km/h 76 % 0 mm 35.0 W/m2 SCT
08:40 -14.4 °C -16.6 °C 34256.2 hPa NNW 46.7 km/h 46.7 km/h 76 % 0 mm 32.0 W/m2 BKN
08:45 -14.7 °C -17 °C 34246 hPa NW 50.7 km/h 50.7 km/h 75 % 0 mm 37.0 W/m2 BKN
08:50 -14.7 °C -17 °C 34256.2 hPa NNW 50.7 km/h 50.7 km/h 75 % 0 mm 100.0 W/m2 BKN
08:55 -14.4 °C -16.7 °C 34246 hPa NW 41.7 km/h 41.7 km/h 75 % 0 mm 118.0 W/m2 FEW
09:00 -14.4 °C -16.8 °C 34256.2 hPa NW 59.5 km/h 59.5 km/h 74 % 0 mm 39.0 W/m2 FEW
09:05 -14.4 °C -16.8 °C 34256.2 hPa WNW 41.7 km/h 41.7 km/h 74 % 0 mm 134.0 W/m2 FEW
09:10 -14.4 °C -16.9 °C 34256.2 hPa NNW 29.8 km/h 29.8 km/h 73 % 0 mm 123.0 W/m2 CLR
09:15 -14.4 °C -17 °C 34246 hPa NW 41.7 km/h 41.7 km/h 72 % 0 mm 116.0 W/m2 CLR
09:20 -14.4 °C -17.1 °C 34246 hPa NNW 51.8 km/h 51.8 km/h 71 % 0 mm 221.0 W/m2 CLR
09:25 -14.1 °C -16.8 °C 34246 hPa NW 51.8 km/h 51.8 km/h 71 % 0 mm 237.0 W/m2 CLR
09:30 -14.1 °C -16.8 °C 34246 hPa NNW 51.8 km/h 51.8 km/h 71 % 0 mm 253.0 W/m2 CLR
09:35 -14.1 °C -16.9 °C 34256.2 hPa NNW 74.5 km/h 74.5 km/h 70 % 0 mm 272.0 W/m2 CLR
09:40 -14.1 °C -16.9 °C 34256.2 hPa NNW 59.5 km/h 59.5 km/h 70 % 0 mm 287.0 W/m2 CLR
09:45 -14.1 °C -16.9 °C 34256.2 hPa NNW 50.7 km/h 50.7 km/h 70 % 0 mm 302.0 W/m2 CLR
09:50 -14.1 °C -17 °C 34256.2 hPa North 50.7 km/h 50.7 km/h 69 % 0 mm 316.0 W/m2 CLR
09:55 -14.1 °C -17.1 °C 34256.2 hPa NW 44.7 km/h 44.7 km/h 68 % 0 mm 334.0 W/m2 CLR
10:00 -13.8 °C -16.9 °C 34256.2 hPa NNW 65.5 km/h 65.5 km/h 67 % 0 mm 346.0 W/m2 CLR
10:05 -13.8 °C -16.9 °C 34256.2 hPa NNW 50.7 km/h 50.7 km/h 67 % 0 mm 360.0 W/m2 CLR
10:10 -13.8 °C -17.1 °C 34256.2 hPa NW 47.6 km/h 47.6 km/h 66 % 0 mm 373.0 W/m2 CLR
10:15 -13.4 °C -16.8 °C 34256.2 hPa NNW 50.7 km/h 50.7 km/h 66 % 0 mm 387.0 W/m2 CLR
10:20 -13.4 °C -16.9 °C 34256.2 hPa NW 62.6 km/h 62.6 km/h 65 % 0 mm 399.0 W/m2 CLR
10:25 -13.4 °C -16.9 °C 34246 hPa NW 41.7 km/h 41.7 km/h 65 % 0 mm 410.0 W/m2 CLR
10:30 -13.4 °C -16.9 °C 34256.2 hPa NW 41.4 km/h 41.4 km/h 65 % 0 mm 424.0 W/m2 CLR
10:35 -13.4 °C -17 °C 34256.2 hPa North 44.7 km/h 44.7 km/h 64 % 0 mm 438.0 W/m2 CLR
10:40 -13.2 °C -16.7 °C 34246 hPa NW 53.6 km/h 53.6 km/h 64 % 0 mm 450.0 W/m2 CLR
10:45 -13.2 °C -16.7 °C 34256.2 hPa NNW 47.6 km/h 47.6 km/h 64 % 0 mm 462.0 W/m2 CLR
10:50 -13.2 °C -16.8 °C 34246 hPa NNW 50.7 km/h 50.7 km/h 63 % 0 mm 473.0 W/m2 CLR
10:55 -12.8 °C -16.7 °C 34256.2 hPa NW 50.7 km/h 50.7 km/h 62 % 0 mm 489.0 W/m2 CLR
11:00 -12.8 °C -16.7 °C 34256.2 hPa NNW 47.6 km/h 47.6 km/h 62 % 0 mm 499.0 W/m2 CLR
11:05 -12.8 °C -16.7 °C 34256.2 hPa NW 50.7 km/h 50.7 km/h 62 % 0 mm 506.0 W/m2 CLR
11:10 -12.6 °C -16.4 °C 34256.2 hPa NNW 59.5 km/h 59.5 km/h 62 % 0 mm 515.0 W/m2 CLR
11:15 -12.6 °C -16.5 °C 34269.7 hPa NNW 68.6 km/h 68.6 km/h 61 % 0 mm 527.0 W/m2 CLR
11:20 -12.2 °C -16.1 °C 34256.2 hPa North 41.7 km/h 41.7 km/h 62 % 0 mm 538.0 W/m2 CLR
11:25 -12.2 °C -16.3 °C 34256.2 hPa NNW 38.8 km/h 38.8 km/h 60 % 0 mm 547.0 W/m2 CLR
11:30 -12.2 °C -16.5 °C 34256.2 hPa NW 50.7 km/h 50.7 km/h 59 % 0 mm 555.0 W/m2 CLR
11:35 -12.2 °C -16.5 °C 34256.2 hPa NW 53.6 km/h 53.6 km/h 59 % 0 mm 561.0 W/m2 CLR
11:40 -12.2 °C -16.5 °C 34256.2 hPa NW 35.7 km/h 35.7 km/h 59 % 0 mm 573.0 W/m2 CLR
11:45 -12.2 °C -16.6 °C 34256.2 hPa NW 44.1 km/h 44.1 km/h 58 % 0 mm 580.0 W/m2 CLR
11:50 -11.9 °C -16.3 °C 34256.2 hPa NW 50.7 km/h 50.7 km/h 58 % 0 mm 585.0 W/m2 CLR
11:55 -11.9 °C -16.3 °C 34256.2 hPa North 41.7 km/h 41.7 km/h 58 % 0 mm 591.0 W/m2 CLR
12:00 -11.9 °C -16.3 °C 34256.2 hPa North 50.7 km/h 50.7 km/h 58 % 0 mm 598.0 W/m2 CLR
12:05 -11.9 °C -16.4 °C 34256.2 hPa NW 41.4 km/h 41.4 km/h 57 % 0 mm 606.0 W/m2 CLR
12:10 -11.9 °C -16.4 °C 34246 hPa NNW 41.7 km/h 41.7 km/h 57 % 0 mm 613.0 W/m2 CLR
12:15 -11.9 °C -16.4 °C 34246 hPa NW 46.7 km/h 46.7 km/h 57 % 0 mm 615.0 W/m2 CLR
12:20 -11.6 °C -16.3 °C 34246 hPa North 53.6 km/h 53.6 km/h 56 % 0 mm 621.0 W/m2 CLR
12:25 -11.6 °C -16.3 °C 34246 hPa NNW 47.6 km/h 47.6 km/h 56 % 0 mm 624.0 W/m2 CLR
12:30 -11.6 °C -16.4 °C 34246 hPa NNW 62.6 km/h 62.6 km/h 55 % 0 mm 631.0 W/m2 CLR
12:35 -11.3 °C -16.2 °C 34246 hPa NNW 53.6 km/h 53.6 km/h 55 % 0 mm 631.0 W/m2 CLR
12:40 -11.3 °C -16.3 °C 34246 hPa NNW 53.6 km/h 53.6 km/h 54 % 0 mm 638.0 W/m2 CLR
12:45 -11.3 °C -16.3 °C 34235.8 hPa NNW 50.7 km/h 50.7 km/h 54 % 0 mm 643.0 W/m2 CLR
12:50 -11.3 °C -16.3 °C 34235.8 hPa NW 47.6 km/h 47.6 km/h 54 % 0 mm 647.0 W/m2 CLR
12:55 -11 °C -16.2 °C 34235.8 hPa NW 47.6 km/h 47.6 km/h 53 % 0 mm 575.0 W/m2 CLR
13:00 -11 °C -16 °C 34235.8 hPa NW 50.7 km/h 50.7 km/h 54 % 0 mm 650.0 W/m2 CLR
13:05 -11 °C -16 °C 34235.8 hPa WNW 44.7 km/h 44.7 km/h 54 % 0 mm 659.0 W/m2 CLR
13:10 -11 °C -16.2 °C 34235.8 hPa NNW 47.6 km/h 47.6 km/h 53 % 0 mm 675.0 W/m2 CLR
13:15 -10.7 °C -16.2 °C 34235.8 hPa NNW 38.8 km/h 38.8 km/h 51 % 0 mm 671.0 W/m2 CLR
13:20 -10.7 °C -16 °C 34222.3 hPa NW 29.8 km/h 29.8 km/h 52 % 0 mm 675.0 W/m2 CLR
13:25 -10.7 °C -16.2 °C 34222.3 hPa North 51.8 km/h 51.8 km/h 51 % 0 mm 670.0 W/m2 CLR
13:30 -10.7 °C -16.2 °C 34222.3 hPa NNW 41.7 km/h 41.7 km/h 51 % 0 mm 661.0 W/m2 CLR
13:35 -10.7 °C -16.2 °C 34222.3 hPa North 53.6 km/h 53.6 km/h 51 % 0 mm 682.0 W/m2 CLR
13:40 -10.7 °C -16.5 °C 34222.3 hPa NW 50.7 km/h 50.7 km/h 49 % 0 mm 708.0 W/m2 CLR
13:45 -10.4 °C -16.2 °C 34222.3 hPa NNW 56.6 km/h 56.6 km/h 49 % 0 mm 619.0 W/m2 CLR
13:50 -10.7 °C -16.5 °C 34222.3 hPa North 44.7 km/h 44.7 km/h 49 % 0 mm 666.0 W/m2 CLR
13:55 -10.4 °C -16.2 °C 34212.1 hPa NNW 50.7 km/h 50.7 km/h 49 % 0 mm 643.0 W/m2 CLR
14:00 -10.4 °C -16.6 °C 34212.1 hPa NNW 44.7 km/h 44.7 km/h 47 % 0 mm 624.0 W/m2 CLR
14:05 -10.4 °C -16.3 °C 34212.1 hPa North 54.4 km/h 54.4 km/h 48 % 0 mm 631.0 W/m2 CLR
14:10 -10.4 °C -16.6 °C 34198.6 hPa North 41.4 km/h 41.4 km/h 47 % 0 mm 596.0 W/m2 CLR
14:15 -10.1 °C -16.2 °C 34198.6 hPa NNW 41.7 km/h 41.7 km/h 47 % 0 mm 642.0 W/m2 CLR
14:20 -10.4 °C -16.6 °C 34198.6 hPa NNW 49.2 km/h 49.2 km/h 47 % 0 mm 650.0 W/m2 CLR
14:25 -10.1 °C -16.4 °C 34198.6 hPa NW 50.7 km/h 50.7 km/h 46 % 0 mm 612.0 W/m2 CLR
14:30 -10.4 °C -16.7 °C 34198.6 hPa NW 44.7 km/h 44.7 km/h 46 % 0 mm 596.0 W/m2 CLR
14:35 -10.4 °C -16.7 °C 34188.4 hPa NNW 36.2 km/h 36.2 km/h 46 % 0 mm 617.0 W/m2 CLR
14:41 -10.1 °C -16.1 °C 34188.4 hPa NW 41.7 km/h 41.7 km/h 48 % 0 mm 601.0 W/m2 CLR
14:46 -10.1 °C -16.8 °C 34188.4 hPa North 53.6 km/h 53.6 km/h 44 % 0 mm 617.0 W/m2 CLR
14:51 -10.4 °C -16.9 °C 34178.3 hPa North 56.6 km/h 56.6 km/h 45 % 0 mm 628.0 W/m2 CLR
14:56 -10.1 °C -16.8 °C 34178.3 hPa North 41.7 km/h 41.7 km/h 44 % 0 mm 621.0 W/m2 CLR
15:01 -10.4 °C -17.1 °C 34178.3 hPa NNW 54.4 km/h 54.4 km/h 44 % 0 mm 464.0 W/m2 CLR
15:06 -10.4 °C -16.9 °C 34178.3 hPa NNW 47.6 km/h 47.6 km/h 45 % 0 mm 473.0 W/m2 CLR
15:11 -10.4 °C -16.9 °C 34178.3 hPa NW 38.8 km/h 38.8 km/h 45 % 0 mm 383.0 W/m2 CLR
15:16 -10.4 °C -16.9 °C 34178.3 hPa NW 53.6 km/h 53.6 km/h 45 % 0 mm 360.0 W/m2 CLR
15:21 -10.4 °C -16.6 °C 34178.3 hPa NNW 62.1 km/h 62.1 km/h 47 % 0 mm 357.0 W/m2 CLR
15:26 -10.7 °C -16.6 °C 34178.3 hPa NNW 54.4 km/h 54.4 km/h 48 % 0 mm 396.0 W/m2 CLR
15:31 -11 °C -16.8 °C 34178.3 hPa NNW 49.2 km/h 49.2 km/h 49 % 0 mm 404.0 W/m2 CLR
15:36 -11 °C -16.8 °C 34178.3 hPa NW 53.6 km/h 53.6 km/h 49 % 0 mm 211.0 W/m2 CLR
15:41 -11.3 °C -16.9 °C 34188.4 hPa North 65.5 km/h 65.5 km/h 50 % 0 mm 218.0 W/m2 CLR
15:46 -11.3 °C -16.9 °C 34188.4 hPa North 71.5 km/h 71.5 km/h 50 % 0 mm 244.0 W/m2 CLR
15:51 -11.3 °C -16.9 °C 34188.4 hPa NNW 53.6 km/h 53.6 km/h 50 % 0 mm 302.0 W/m2 CLR
15:56 -11.3 °C -16.9 °C 34188.4 hPa NNW 54.4 km/h 54.4 km/h 50 % 0 mm 251.0 W/m2 CLR
16:01 -11.6 °C -17.2 °C 34188.4 hPa NNW 50.7 km/h 50.7 km/h 50 % 0 mm 202.0 W/m2 CLR
16:06 -11.6 °C -17.3 °C 34198.6 hPa NNW 62.6 km/h 62.6 km/h 49 % 0 mm 200.0 W/m2 CLR
16:11 -11.6 °C -17.2 °C 34188.4 hPa NW 56.6 km/h 56.6 km/h 50 % 0 mm 218.0 W/m2 CLR
16:16 -11.6 °C -17.2 °C 34188.4 hPa NW 50.7 km/h 50.7 km/h 50 % 0 mm 223.0 W/m2 CLR
16:21 -11.6 °C -17.3 °C 34188.4 hPa NNW 50.7 km/h 50.7 km/h 49 % 0 mm 237.0 W/m2 CLR
16:26 -11.6 °C -17.2 °C 34188.4 hPa NNW 50.7 km/h 50.7 km/h 50 % 0 mm 225.0 W/m2 CLR
16:31 -11.6 °C -17.3 °C 34188.4 hPa NW 50.7 km/h 50.7 km/h 49 % 0 mm 232.0 W/m2 CLR
16:37 -11.6 °C -17.7 °C 34188.4 hPa NNW 47.6 km/h 47.6 km/h 47 % 0 mm 188.0 W/m2 CLR
16:42 -11.6 °C -17.5 °C 34188.4 hPa NNW 50.7 km/h 50.7 km/h 48 % 0 mm 209.0 W/m2 CLR
16:47 -11.6 °C -17.7 °C 34188.4 hPa North 53.6 km/h 53.6 km/h 47 % 0 mm 190.0 W/m2 CLR
16:52 -11.6 °C -17.7 °C 34188.4 hPa NNW 47.6 km/h 47.6 km/h 47 % 0 mm 141.0 W/m2 CLR
16:57 -11.6 °C -17.7 °C 34188.4 hPa NNW 35.7 km/h 35.7 km/h 47 % 0 mm 109.0 W/m2 CLR
17:02 -11.9 °C -17.9 °C 34188.4 hPa NNW 38.8 km/h 38.8 km/h 47 % 0 mm 179.0 W/m2 CLR
17:07 -11.6 °C -17.8 °C 34188.4 hPa North 41.7 km/h 41.7 km/h 46 % 0 mm 171.0 W/m2 CLR
17:12 -11.9 °C -18.3 °C 34188.4 hPa NNW 47.6 km/h 47.6 km/h 45 % 0 mm 102.0 W/m2 CLR
17:17 -11.9 °C -18.1 °C 34188.4 hPa NW 38.8 km/h 38.8 km/h 46 % 0 mm 88.0 W/m2 CLR
17:22 -11.9 °C -18.1 °C 34188.4 hPa NW 41.7 km/h 41.7 km/h 46 % 0 mm 81.0 W/m2 CLR
17:27 -12.2 °C -18.4 °C 34188.4 hPa NNW 44.7 km/h 44.7 km/h 46 % 0 mm 70.0 W/m2 FEW
17:32 -12.2 °C -18.4 °C 34188.4 hPa NW 29.8 km/h 29.8 km/h 46 % 0 mm 54.0 W/m2 FEW
17:37 -12.2 °C -18.4 °C 34188.4 hPa NW 41.7 km/h 41.7 km/h 46 % 0 mm 67.0 W/m2 SCT
17:42 -12.6 °C -18.8 °C 34188.4 hPa NNW 41.7 km/h 41.7 km/h 45 % 0 mm 53.0 W/m2 SCT
17:47 -12.6 °C -18.8 °C 34188.4 hPa NW 38.8 km/h 38.8 km/h 45 % 0 mm 49.0 W/m2 SCT
17:52 -12.6 °C -18.8 °C 34188.4 hPa NW 36.2 km/h 36.2 km/h 45 % 0 mm 81.0 W/m2 FEW
17:57 -12.6 °C -18.8 °C 34188.4 hPa NW 29.8 km/h 29.8 km/h 45 % 0 mm 62.0 W/m2 SCT
18:02 -12.6 °C -18.8 °C 34198.6 hPa NNW 31.1 km/h 31.1 km/h 45 % 0 mm 46.0 W/m2 SCT
18:07 -12.6 °C -18.8 °C 34188.4 hPa NW 32.8 km/h 32.8 km/h 45 % 0 mm 46.0 W/m2 SCT
18:12 -12.6 °C -19 °C 34198.6 hPa NW 41.7 km/h 41.7 km/h 44 % 0 mm 37.0 W/m2 BKN
18:17 -12.8 °C -19.1 °C 34198.6 hPa NW 38.8 km/h 38.8 km/h 45 % 0 mm 30.0 W/m2 BKN
18:22 -12.8 °C -19.1 °C 34198.6 hPa NNW 50.7 km/h 50.7 km/h 45 % 0 mm 25.0 W/m2 BKN
18:27 -12.8 °C -19.3 °C 34198.6 hPa NW 50.7 km/h 50.7 km/h 44 % 0 mm 18.0 W/m2 BKN
18:32 -12.8 °C -19.3 °C 34198.6 hPa NNW 35.7 km/h 35.7 km/h 44 % 0 mm 12.0 W/m2 BKN
18:37 -12.8 °C -19.1 °C 34198.6 hPa NW 44.7 km/h 44.7 km/h 45 % 0 mm 7.0 W/m2 BKN
18:42 -12.8 °C -19.1 °C 34198.6 hPa NNW 49.2 km/h 49.2 km/h 45 % 0 mm 0.0 W/m2 OVC
18:47 -13.2 °C -19.6 °C 34212.1 hPa NNW 56.6 km/h 56.6 km/h 44 % 0 mm 0.0 W/m2 OVC
18:52 -13.2 °C -19.6 °C 34212.1 hPa NW 46.7 km/h 46.7 km/h 44 % 0 mm 0.0 W/m2 CLR
18:57 -13.2 °C -19.6 °C 34212.1 hPa NW 50.7 km/h 50.7 km/h 44 % 0 mm 0.0 W/m2 CLR
19:02 -13.2 °C -19.6 °C 34212.1 hPa North 41.4 km/h 41.4 km/h 44 % 0 mm 0.0 W/m2 CLR
19:07 -13.4 °C -19.8 °C 34212.1 hPa NW 38.8 km/h 38.8 km/h 44 % 0 mm 0.0 W/m2 CLR
19:12 -13.4 °C -19.8 °C 34212.1 hPa NW 50.7 km/h 50.7 km/h 44 % 0 mm 0.0 W/m2 CLR
19:17 -13.4 °C -19.8 °C 34222.3 hPa NW 59.5 km/h 59.5 km/h 44 % 0 mm 0.0 W/m2 CLR
19:22 -13.4 °C -19.7 °C 34222.3 hPa NW 50.7 km/h 50.7 km/h 45 % 0 mm 0.0 W/m2 CLR
19:27 -13.4 °C -19.7 °C 34222.3 hPa NW 50.7 km/h 50.7 km/h 45 % 0 mm 0.0 W/m2 CLR
19:32 -13.8 °C -19.9 °C 34222.3 hPa NW 50.7 km/h 50.7 km/h 45 % 0 mm 0.0 W/m2 CLR
19:37 -13.8 °C -19.8 °C 34222.3 hPa NW 56.6 km/h 56.6 km/h 46 % 0 mm 0.0 W/m2 CLR
19:42 -13.8 °C -19.8 °C 34222.3 hPa North 47.6 km/h 47.6 km/h 46 % 0 mm 0.0 W/m2 CLR
19:47 -13.8 °C -19.8 °C 34222.3 hPa NNW 50.7 km/h 50.7 km/h 46 % 0 mm 0.0 W/m2 CLR
19:52 -14.1 °C -20.1 °C 34235.8 hPa NNW 47.6 km/h 47.6 km/h 46 % 0 mm 0.0 W/m2 CLR
19:57 -14.1 °C -19.9 °C 34235.8 hPa NNW 50.7 km/h 50.7 km/h 47 % 0 mm 0.0 W/m2 CLR
20:02 -14.1 °C -19.9 °C 34235.8 hPa NNW 53.6 km/h 53.6 km/h 47 % 0 mm 0.0 W/m2 CLR
20:07 -14.1 °C -19.9 °C 34235.8 hPa NW 47.6 km/h 47.6 km/h 47 % 0 mm 0.0 W/m2 CLR
20:12 -14.4 °C -20.2 °C 34235.8 hPa NW 59.5 km/h 59.5 km/h 47 % 0 mm 0.0 W/m2 CLR
20:17 -14.4 °C -20.1 °C 34235.8 hPa NNW 62.6 km/h 62.6 km/h 48 % 0 mm 0.0 W/m2 CLR
20:22 -14.4 °C -20.1 °C 34235.8 hPa NW 47.6 km/h 47.6 km/h 48 % 0 mm 0.0 W/m2 CLR
20:27 -14.4 °C -20.1 °C 34246 hPa NNW 50.7 km/h 50.7 km/h 48 % 0 mm 0.0 W/m2 CLR
20:32 -14.4 °C -19.9 °C 34246 hPa NW 50.7 km/h 50.7 km/h 49 % 0 mm 0.0 W/m2 CLR
20:37 -14.4 °C -19.9 °C 34246 hPa NNW 47.6 km/h 47.6 km/h 49 % 0 mm 0.0 W/m2 CLR
20:42 -14.7 °C -20.2 °C 34256.2 hPa NW 50.7 km/h 50.7 km/h 49 % 0 mm 0.0 W/m2 CLR
20:47 -14.7 °C -20.2 °C 34256.2 hPa NNW 53.6 km/h 53.6 km/h 49 % 0 mm 0.0 W/m2 CLR
20:52 -14.7 °C -20.1 °C 34256.2 hPa North 54.4 km/h 54.4 km/h 50 % 0 mm 0.0 W/m2 CLR
20:57 -14.7 °C -19.9 °C 34256.2 hPa NNW 57 km/h 57 km/h 51 % 0 mm 0.0 W/m2 CLR
21:02 -14.7 °C -19.9 °C 34256.2 hPa NW 44.7 km/h 44.7 km/h 51 % 0 mm 0.0 W/m2 CLR
21:07 -14.7 °C -19.9 °C 34256.2 hPa NW 59.5 km/h 59.5 km/h 51 % 0 mm 0.0 W/m2 CLR
21:12 -15 °C -20.2 °C 34256.2 hPa NNW 38.8 km/h 38.8 km/h 51 % 0 mm 0.0 W/m2 CLR
21:17 -15 °C -20.1 °C 34256.2 hPa NNW 56.6 km/h 56.6 km/h 52 % 0 mm 0.0 W/m2 CLR
21:22 -15 °C -20.1 °C 34256.2 hPa NW 62.1 km/h 62.1 km/h 52 % 0 mm 0.0 W/m2 CLR
21:27 -15 °C -20.1 °C 34256.2 hPa NNW 59.5 km/h 59.5 km/h 52 % 0 mm 0.0 W/m2 CLR
21:32 -15 °C -19.9 °C 34269.7 hPa NNW 50.7 km/h 50.7 km/h 53 % 0 mm 0.0 W/m2 CLR
21:37 -15 °C -19.9 °C 34269.7 hPa NW 56.6 km/h 56.6 km/h 53 % 0 mm 0.0 W/m2 CLR
21:42 -15 °C -19.9 °C 34269.7 hPa NNW 50.7 km/h 50.7 km/h 53 % 0 mm 0.0 W/m2 CLR
21:47 -15 °C -19.8 °C 34269.7 hPa NNW 53.6 km/h 53.6 km/h 54 % 0 mm 0.0 W/m2 CLR
21:52 -15 °C -19.8 °C 34269.7 hPa North 62.6 km/h 62.6 km/h 54 % 0 mm 0.0 W/m2 CLR
21:57 -15 °C -19.8 °C 34269.7 hPa NW 47.6 km/h 47.6 km/h 54 % 0 mm 0.0 W/m2 CLR
22:02 -15 °C -19.6 °C 34269.7 hPa NNW 50.7 km/h 50.7 km/h 55 % 0 mm 0.0 W/m2 CLR
22:07 -15 °C -19.6 °C 34279.9 hPa NNW 56.6 km/h 56.6 km/h 55 % 0 mm 0.0 W/m2 CLR
22:12 -15.3 °C -19.8 °C 34279.9 hPa NNW 51.8 km/h 51.8 km/h 56 % 0 mm 0.0 W/m2 CLR
22:18 -15.3 °C -19.6 °C 34279.9 hPa NNW 77.4 km/h 77.4 km/h 57 % 0 mm 0.0 W/m2 CLR
22:23 -15.3 °C -19.6 °C 34279.9 hPa NNW 50.7 km/h 50.7 km/h 57 % 0 mm 0.0 W/m2 CLR
22:28 -15.3 °C -19.5 °C 34279.9 hPa NW 62.6 km/h 62.6 km/h 58 % 0 mm 0.0 W/m2 CLR
22:33 -15.3 °C -19.4 °C 34279.9 hPa NW 56.6 km/h 56.6 km/h 59 % 0 mm 0.0 W/m2 CLR
22:38 -15.3 °C -19.3 °C 34279.9 hPa NW 65.5 km/h 65.5 km/h 60 % 0 mm 0.0 W/m2 CLR
22:43 -15.3 °C -19.3 °C 34279.9 hPa NW 56.6 km/h 56.6 km/h 60 % 0 mm 0.0 W/m2 CLR
22:48 -15.3 °C -19.1 °C 34279.9 hPa NW 65.5 km/h 65.5 km/h 61 % 0 mm 0.0 W/m2 CLR
22:53 -15.3 °C -19.1 °C 34279.9 hPa NW 50.7 km/h 50.7 km/h 61 % 0 mm 0.0 W/m2 CLR
22:58 -15.6 °C -19.4 °C 34279.9 hPa NW 62.6 km/h 62.6 km/h 61 % 0 mm 0.0 W/m2 CLR
23:03 -15.6 °C -19.3 °C 34279.9 hPa NNW 50.7 km/h 50.7 km/h 62 % 0 mm 0.0 W/m2 CLR
23:08 -15.6 °C -19.3 °C 34279.9 hPa NW 62.1 km/h 62.1 km/h 62 % 0 mm 0.0 W/m2 CLR
23:13 -15.6 °C -19.3 °C 34279.9 hPa NW 53.6 km/h 53.6 km/h 62 % 0 mm 0.0 W/m2 CLR
23:18 -15.6 °C -19.2 °C 34293.4 hPa NNW 56.6 km/h 56.6 km/h 63 % 0 mm 0.0 W/m2 CLR
23:23 -15.6 °C -19.2 °C 34279.9 hPa NW 53.6 km/h 53.6 km/h 63 % 0 mm 0.0 W/m2 CLR
23:28 -15.6 °C -19.2 °C 34279.9 hPa NW 44.7 km/h 44.7 km/h 63 % 0 mm 0.0 W/m2 CLR
23:33 -15.6 °C -19.1 °C 34279.9 hPa NW 47.6 km/h 47.6 km/h 64 % 0 mm 0.0 W/m2 CLR
23:38 -15.6 °C -19.1 °C 34293.4 hPa NW 47.6 km/h 47.6 km/h 64 % 0 mm 0.0 W/m2 CLR
23:43 -15.6 °C -19.1 °C 34293.4 hPa NW 50.7 km/h 50.7 km/h 64 % 0 mm 0.0 W/m2 CLR
23:48 -15.9 °C -19.3 °C 34293.4 hPa NW 38.8 km/h 38.8 km/h 64 % 0 mm 0.0 W/m2 CLR
23:53 -15.9 °C -19.3 °C 34293.4 hPa NW 50.7 km/h 50.7 km/h 64 % 0 mm 0.0 W/m2 CLR
23:58 -15.9 °C -19.3 °C 34293.4 hPa NW 38.8 km/h 38.8 km/h 64 % 0 mm 0.0 W/m2 CLR
Lo Temps de Massalio
Compliments of Weather Underground - 1.25 mb